sensor_id;sensor_type;location;lat;lon;timestamp;pressure;altitude;pressure_sealevel;temperature;humidity
71565;BME280;59397;50.952;14.502;2023-11-19T00:13:58;971.99;;;21.28;61.84
71565;BME280;59397;50.952;14.502;2023-11-19T00:33:35;971.21;;;21.79;56.41
71565;BME280;59397;50.952;14.502;2023-11-19T00:53:06;970.81;;;21.17;61.18
71565;BME280;59397;50.952;14.502;2023-11-19T01:12:42;970.74;;;21.88;55.38
71565;BME280;59397;50.952;14.502;2023-11-19T01:32:12;970.63;;;21.02;60.49
71565;BME280;59397;50.952;14.502;2023-11-19T01:51:46;969.69;;;21.48;56.70
71565;BME280;59397;50.952;14.502;2023-11-19T02:11:19;969.63;;;20.80;60.26
71565;BME280;59397;50.952;14.502;2023-11-19T02:30:52;969.15;;;20.99;59.60
71565;BME280;59397;50.952;14.502;2023-11-19T02:50:28;968.58;;;20.73;58.88
71565;BME280;59397;50.952;14.502;2023-11-19T03:09:50;968.20;;;20.39;62.88
71565;BME280;59397;50.952;14.502;2023-11-19T03:29:30;967.45;;;20.74;57.02
71565;BME280;59397;50.952;14.502;2023-11-19T03:48:55;967.34;;;20.26;61.04
71565;BME280;59397;50.952;14.502;2023-11-19T04:08:31;967.24;;;21.05;54.60
71565;BME280;59397;50.952;14.502;2023-11-19T04:28:02;966.80;;;20.14;60.39
71565;BME280;59397;50.952;14.502;2023-11-19T04:47:36;966.51;;;20.56;57.07
71565;BME280;59397;50.952;14.502;2023-11-19T05:07:10;966.22;;;20.10;59.27
71565;BME280;59397;50.952;14.502;2023-11-19T05:26:44;965.97;;;19.98;61.88
71565;BME280;59397;50.952;14.502;2023-11-19T05:46:03;965.47;;;19.87;57.71
71565;BME280;59397;50.952;14.502;2023-11-19T06:05:18;965.48;;;19.69;60.98
71565;BME280;59397;50.952;14.502;2023-11-19T06:24:55;965.15;;;20.15;55.98
71565;BME280;59397;50.952;14.502;2023-11-19T06:44:27;965.25;;;19.60;60.48
71565;BME280;59397;50.952;14.502;2023-11-19T07:03:54;964.59;;;20.39;54.77
71565;BME280;59397;50.952;14.502;2023-11-19T07:23:25;964.89;;;19.37;60.10
71565;BME280;59397;50.952;14.502;2023-11-19T07:42:54;964.79;;;19.60;69.08
71565;BME280;59397;50.952;14.502;2023-11-19T08:02:31;964.85;;;19.65;68.32
71565;BME280;59397;50.952;14.502;2023-11-19T08:22:05;964.74;;;19.80;68.84
71565;BME280;59397;50.952;14.502;2023-11-19T08:41:40;964.81;;;19.80;66.97
71565;BME280;59397;50.952;14.502;2023-11-19T09:01:14;964.60;;;20.73;63.62
71565;BME280;59397;50.952;14.502;2023-11-19T09:20:46;964.47;;;20.09;68.25
71565;BME280;59397;50.952;14.502;2023-11-19T09:40:22;964.62;;;21.01;60.75
71565;BME280;59397;50.952;14.502;2023-11-19T09:59:50;964.62;;;19.95;67.99
71565;BME280;59397;50.952;14.502;2023-11-19T10:19:28;964.33;;;20.59;62.13
71565;BME280;59397;50.952;14.502;2023-11-19T10:38:59;963.99;;;20.00;68.44
71565;BME280;59397;50.952;14.502;2023-11-19T10:58:38;964.03;;;20.68;62.09
71565;BME280;59397;50.952;14.502;2023-11-19T11:18:08;964.00;;;20.09;69.07
71565;BME280;59397;50.952;14.502;2023-11-19T11:37:46;963.96;;;20.57;61.76
71565;BME280;59397;50.952;14.502;2023-11-19T11:57:17;963.88;;;20.07;69.08
71565;BME280;59397;50.952;14.502;2023-11-19T12:17:00;963.82;;;20.63;61.76
71565;BME280;59397;50.952;14.502;2023-11-19T12:36:29;963.69;;;20.22;68.95
71565;BME280;59397;50.952;14.502;2023-11-19T12:56:07;963.69;;;20.63;61.63
71565;BME280;59397;50.952;14.502;2023-11-19T13:15:38;963.50;;;20.29;67.89
71565;BME280;59397;50.952;14.502;2023-11-19T13:35:17;963.51;;;20.69;61.18
71565;BME280;59397;50.952;14.502;2023-11-19T13:54:49;963.48;;;20.54;66.46
71565;BME280;59397;50.952;14.502;2023-11-19T14:14:27;963.79;;;20.66;61.45
71565;BME280;59397;50.952;14.502;2023-11-19T14:33:59;963.27;;;18.93;61.93
71565;BME280;59397;50.952;14.502;2023-11-19T14:53:42;963.48;;;20.45;60.31
71565;BME280;59397;50.952;14.502;2023-11-19T15:12:58;963.68;;;20.64;63.44
71565;BME280;59397;50.952;14.502;2023-11-19T15:32:35;963.62;;;20.64;60.37
71565;BME280;59397;50.952;14.502;2023-11-19T15:52:08;963.64;;;20.60;63.84
71565;BME280;59397;50.952;14.502;2023-11-19T16:11:47;963.69;;;20.63;60.07
71565;BME280;59397;50.952;14.502;2023-11-19T16:31:04;963.79;;;20.47;65.52
71565;BME280;59397;50.952;14.502;2023-11-19T16:50:42;963.74;;;20.77;59.56
71565;BME280;59397;50.952;14.502;2023-11-19T17:10:15;963.86;;;20.42;64.81
71565;BME280;59397;50.952;14.502;2023-11-19T17:29:54;963.88;;;20.77;58.81
71565;BME280;59397;50.952;14.502;2023-11-19T17:49:26;963.92;;;20.33;64.31
71565;BME280;59397;50.952;14.502;2023-11-19T18:09:05;963.73;;;20.83;58.73
71565;BME280;59397;50.952;14.502;2023-11-19T18:28:36;963.75;;;20.48;64.27
71565;BME280;59397;50.952;14.502;2023-11-19T18:48:14;963.80;;;20.86;58.23
71565;BME280;59397;50.952;14.502;2023-11-19T19:07:46;963.91;;;20.39;62.72
71565;BME280;59397;50.952;14.502;2023-11-19T19:27:24;963.90;;;20.89;57.33
71565;BME280;59397;50.952;14.502;2023-11-19T19:46:56;963.93;;;20.51;62.38
71565;BME280;59397;50.952;14.502;2023-11-19T20:06:35;963.94;;;21.07;57.04
71565;BME280;59397;50.952;14.502;2023-11-19T20:26:06;964.05;;;20.47;62.07
71565;BME280;59397;50.952;14.502;2023-11-19T20:45:43;964.04;;;21.11;56.25
71565;BME280;59397;50.952;14.502;2023-11-19T21:05:14;963.94;;;20.42;61.78
71565;BME280;59397;50.952;14.502;2023-11-19T21:24:51;964.03;;;21.45;55.13
71565;BME280;59397;50.952;14.502;2023-11-19T21:44:22;963.99;;;20.48;61.39
71565;BME280;59397;50.952;14.502;2023-11-19T22:03:58;964.06;;;21.45;54.44
71565;BME280;59397;50.952;14.502;2023-11-19T22:23:27;963.88;;;20.45;60.52
71565;BME280;59397;50.952;14.502;2023-11-19T22:43:02;963.95;;;21.21;56.38
71565;BME280;59397;50.952;14.502;2023-11-19T23:02:36;963.93;;;20.54;60.33
71565;BME280;59397;50.952;14.502;2023-11-19T23:22:10;963.95;;;21.07;57.97
71565;BME280;59397;50.952;14.502;2023-11-19T23:41:44;963.88;;;20.53;59.68
